Time;durP1;ratioP1;P1;durP2;ratioP2;P2;SDS_P1;SDS_P2;PMS_P1;PMS_P2;Temp;Humidity;BMP_temperature;BMP_pressure;BME280_temperature;BME280_humidity;BME280_pressure;Samples;Min_cycle;Max_cycle;Signal;HPM_P1;HPM_P2
2023/11/01 00:01:13;;;;;;;0.63;0.63;;;0.00;99.90;;;;;;5094501;28;20203;-69
2023/11/01 00:03:39;;;;;;;0.63;0.63;;;0.00;99.90;;;;;;5112819;28;20581;-69
2023/11/01 00:06:05;;;;;;;0.63;0.63;;;0.00;99.90;;;;;;5112749;28;20202;-70
2023/11/01 00:08:31;;;;;;;0.60;0.60;;;0.00;99.90;;;;;;5112698;28;20522;-69
2023/11/01 00:10:57;;;;;;;0.70;0.70;;;0.00;99.90;;;;;;5112368;28;20191;-70
2023/11/01 00:13:22;;;;;;;0.60;0.60;;;0.00;99.90;;;;;;5112618;28;20203;-70
2023/11/01 00:15:48;;;;;;;0.70;0.70;;;0.00;99.90;;;;;;5112397;28;20198;-70
2023/11/01 00:18:14;;;;;;;0.55;0.55;;;0.00;99.90;;;;;;5112273;28;20199;-70
2023/11/01 00:20:39;;;;;;;0.70;0.70;;;0.00;99.90;;;;;;5093658;28;20294;-70
2023/11/01 00:23:05;;;;;;;0.70;0.70;;;0.00;99.90;;;;;;5112122;28;20218;-69
2023/11/01 00:25:30;;;;;;;0.70;0.70;;;0.00;99.90;;;;;;5093604;28;20245;-70
2023/11/01 00:27:56;;;;;;;0.68;0.68;;;0.00;99.90;;;;;;5092401;28;20196;-70
2023/11/01 00:30:22;;;;;;;0.60;0.60;;;0.00;99.90;;;;;;5093868;28;20200;-69
2023/11/01 00:32:48;;;;;;;0.60;0.60;;;0.00;99.90;;;;;;5111923;28;20912;-70
2023/11/01 00:35:14;;;;;;;0.55;0.55;;;0.00;99.90;;;;;;5093579;28;20674;-70
2023/11/01 00:37:39;;;;;;;0.70;0.70;;;0.00;99.90;;;;;;5111688;28;20200;-70
2023/11/01 00:40:06;;;;;;;0.70;0.70;;;0.00;99.90;;;;;;5093430;28;20544;-70
2023/11/01 00:42:31;;;;;;;0.70;0.70;;;0.00;99.90;;;;;;5111271;28;20207;-69
2023/11/01 00:44:57;;;;;;;0.75;0.75;;;0.00;99.90;;;;;;5093448;28;20259;-69
2023/11/01 00:47:23;;;;;;;0.63;0.63;;;0.00;99.90;;;;;;5111465;28;20283;-70
2023/11/01 00:49:48;;;;;;;0.80;0.80;;;0.00;99.90;;;;;;5093247;28;20195;-70
2023/11/01 00:52:14;;;;;;;0.70;0.70;;;0.00;99.90;;;;;;5111688;28;20605;-69
2023/11/01 00:54:40;;;;;;;0.70;0.70;;;0.00;99.90;;;;;;5108026;28;20212;-69
2023/11/01 00:57:05;;;;;;;0.70;0.70;;;0.00;99.90;;;;;;5090932;28;20249;-69
2023/11/01 00:59:31;;;;;;;0.60;0.60;;;0.00;99.90;;;;;;5090731;28;20204;-70
2023/11/01 01:01:57;;;;;;;0.75;0.75;;;0.00;99.90;;;;;;5072791;28;20235;-70
2023/11/01 01:04:22;;;;;;;0.70;0.70;;;0.00;99.90;;;;;;5077620;28;20346;-70
2023/11/01 01:06:48;;;;;;;0.70;0.70;;;0.00;99.90;;;;;;5070340;28;20200;-70
2023/11/01 01:09:14;;;;;;;0.60;0.60;;;0.00;99.90;;;;;;5090799;28;20198;-69
2023/11/01 01:11:39;;;;;;;0.65;0.65;;;-0.10;99.90;;;;;;5090534;28;20192;-69
2023/11/01 01:14:05;;;;;;;0.60;0.60;;;0.00;99.90;;;;;;5090468;28;20297;-69
2023/11/01 01:16:31;;;;;;;0.60;0.60;;;0.00;99.90;;;;;;5090363;28;20203;-68
2023/11/01 01:18:56;;;;;;;0.60;0.60;;;0.00;99.90;;;;;;5090503;28;20232;-69
2023/11/01 01:21:22;;;;;;;0.70;0.70;;;0.00;99.90;;;;;;5090105;28;20203;-70
2023/11/01 01:23:48;;;;;;;0.60;0.60;;;-0.10;99.90;;;;;;5090078;28;20991;-69
2023/11/01 01:26:13;;;;;;;0.70;0.70;;;0.00;99.90;;;;;;5089954;28;20855;-69
2023/11/01 01:28:39;;;;;;;0.60;0.60;;;-0.10;99.90;;;;;;5090130;28;20196;-69
2023/11/01 01:31:05;;;;;;;0.50;0.50;;;0.00;99.90;;;;;;5089779;28;20275;-69
2023/11/01 01:33:30;;;;;;;0.70;0.70;;;-0.10;99.90;;;;;;5089891;28;20196;-69
2023/11/01 01:35:57;;;;;;;0.60;0.60;;;-0.10;99.90;;;;;;5089681;28;20199;-69
2023/11/01 01:38:23;;;;;;;0.50;0.50;;;-0.10;99.90;;;;;;5089084;28;20192;-68
2023/11/01 01:40:48;;;;;;;0.60;0.60;;;-0.10;99.90;;;;;;5089893;28;20300;-68
2023/11/01 01:43:24;;;;;;;0.80;0.80;;;-0.10;99.90;;;;;;5090026;28;20211;-68
2023/11/01 01:46:09;;;;;;;0.70;0.70;;;-0.10;99.90;;;;;;5089700;28;20237;-69
2023/11/01 01:48:35;;;;;;;0.60;0.60;;;-0.10;99.90;;;;;;5089720;28;20206;-69
2023/11/01 01:51:03;;;;;;;0.73;0.73;;;-0.10;99.90;;;;;;5071767;28;20200;-69
2023/11/01 01:53:30;;;;;;;0.57;0.57;;;-0.10;99.90;;;;;;5089436;28;20675;-68
2023/11/01 01:55:57;;;;;;;0.60;0.60;;;-0.10;99.90;;;;;;5103257;28;20222;-68
2023/11/01 01:58:26;;;;;;;0.63;0.63;;;-0.10;99.90;;;;;;5109698;28;20566;-69
2023/11/01 02:00:54;;;;;;;0.70;0.70;;;-0.10;99.90;;;;;;5109751;28;20207;-69
2023/11/01 02:03:19;;;;;;;0.77;0.77;;;-0.10;99.90;;;;;;5105473;28;20264;-69
2023/11/01 02:05:45;;;;;;;0.70;0.70;;;-0.10;99.90;;;;;;5089481;28;20188;-69
2023/11/01 02:08:11;;;;;;;0.70;0.70;;;-0.20;99.90;;;;;;5089379;28;20253;-69
2023/11/01 02:10:37;;;;;;;0.70;0.70;;;-0.10;99.90;;;;;;5089402;28;20215;-69
2023/11/01 02:13:13;;;;;;;0.80;0.80;;;-0.10;99.90;;;;;;5070639;28;20215;-68
2023/11/01 02:15:39;;;;;;;0.70;0.70;;;-0.10;99.90;;;;;;5089216;28;20196;-69
2023/11/01 02:18:05;;;;;;;0.60;0.60;;;-0.10;99.90;;;;;;5089610;28;20192;-68
2023/11/01 02:20:34;;;;;;;0.60;0.60;;;-0.20;99.90;;;;;;5089011;28;20605;-67
2023/11/01 02:23:01;;;;;;;0.60;0.60;;;-0.20;99.90;;;;;;5099410;28;20355;-68
2023/11/01 02:25:28;;;;;;;0.70;0.70;;;-0.20;99.90;;;;;;5109270;28;20183;-67
2023/11/01 02:27:56;;;;;;;0.70;0.70;;;-0.20;99.90;;;;;;5109074;28;20192;-67
2023/11/01 02:30:22;;;;;;;0.82;0.82;;;-0.20;99.90;;;;;;5108932;28;20199;-68
2023/11/01 02:32:48;;;;;;;0.70;0.70;;;-0.10;99.90;;;;;;5109050;28;20313;-67
2023/11/01 02:35:18;;;;;;;0.68;0.68;;;-0.20;99.90;;;;;;5109065;28;20267;-67
2023/11/01 02:37:43;;;;;;;0.70;0.70;;;-0.20;99.90;;;;;;5109139;28;20195;-69
2023/11/01 02:40:10;;;;;;;0.65;0.65;;;-0.20;99.90;;;;;;5109367;28;20202;-67
2023/11/01 02:42:40;;;;;;;0.70;0.70;;;-0.20;99.90;;;;;;5108925;28;20636;-67
2023/11/01 02:45:09;;;;;;;0.60;0.60;;;-0.20;99.90;;;;;;5109368;28;20612;-68
2023/11/01 02:47:35;;;;;;;1.00;1.00;;;-0.20;99.90;;;;;;5090842;28;20206;-67
2023/11/01 02:50:03;;;;;;;0.63;0.63;;;-0.20;99.90;;;;;;5109697;28;20565;-69
2023/11/01 02:52:30;;;;;;;0.70;0.70;;;-0.30;99.90;;;;;;5113226;28;20195;-68
2023/11/01 02:54:56;;;;;;;0.70;0.70;;;-0.30;99.90;;;;;;5127241;27;20226;-67
2023/11/01 02:57:21;;;;;;;0.63;0.63;;;-0.30;99.90;;;;;;5117830;27;20215;-67
2023/11/01 02:59:47;;;;;;;0.60;0.60;;;-0.20;99.90;;;;;;5113289;28;20592;-70
2023/11/01 03:02:13;;;;;;;1.75;1.63;;;-0.30;99.90;;;;;;5113093;28;20214;-69
2023/11/01 03:04:39;;;;;;;0.80;0.80;;;-0.30;99.90;;;;;;5113153;28;20199;-69
2023/11/01 03:07:05;;;;;;;0.70;0.70;;;-0.30;99.90;;;;;;5113289;28;20674;-70
2023/11/01 03:09:31;;;;;;;0.70;0.70;;;-0.30;99.90;;;;;;5113180;28;20195;-69
2023/11/01 03:11:56;;;;;;;0.70;0.70;;;-0.30;99.90;;;;;;5113100;28;20188;-69
2023/11/01 03:14:22;;;;;;;0.80;0.80;;;-0.30;99.90;;;;;;5112940;28;20195;-69
2023/11/01 03:16:48;;;;;;;0.68;0.68;;;-0.30;99.90;;;;;;5113049;28;20195;-69
2023/11/01 03:19:13;;;;;;;0.70;0.70;;;-0.30;99.90;;;;;;5113312;28;20305;-69
2023/11/01 03:21:41;;;;;;;1.10;1.00;;;-0.40;99.90;;;;;;5113034;28;20612;-69
2023/11/01 03:24:07;;;;;;;0.60;0.60;;;-0.30;99.90;;;;;;5112999;28;20310;-69
2023/11/01 03:26:33;;;;;;;0.70;0.70;;;-0.40;99.90;;;;;;5112750;28;20286;-70
2023/11/01 03:28:59;;;;;;;0.80;0.80;;;-0.40;99.90;;;;;;5113124;28;20187;-69
2023/11/01 03:31:25;;;;;;;0.68;0.68;;;-0.40;99.90;;;;;;5094161;28;20330;-70
2023/11/01 03:33:51;;;;;;;0.60;0.60;;;-0.40;99.90;;;;;;5113125;28;20192;-70
2023/11/01 03:36:17;;;;;;;0.70;0.70;;;-0.50;99.90;;;;;;5113020;28;20272;-69
2023/11/01 03:38:43;;;;;;;0.60;0.60;;;-0.50;99.90;;;;;;5112721;28;20206;-69
2023/11/01 03:41:10;;;;;;;0.65;0.65;;;-0.50;99.90;;;;;;5112491;28;20653;-69
2023/11/01 03:43:36;;;;;;;0.80;0.80;;;-0.50;99.90;;;;;;5112557;28;20674;-69
2023/11/01 03:46:02;;;;;;;0.60;0.60;;;-0.50;99.90;;;;;;5112912;28;20195;-70
2023/11/01 03:48:28;;;;;;;0.70;0.70;;;-0.60;99.90;;;;;;5112222;28;20188;-69
2023/11/01 03:50:54;;;;;;;0.65;0.65;;;-0.50;99.90;;;;;;5100751;28;20215;-70
2023/11/01 03:53:20;;;;;;;0.60;0.60;;;-0.60;99.90;;;;;;5105210;28;20249;-69
2023/11/01 03:55:45;;;;;;;0.75;0.75;;;-0.50;99.90;;;;;;5111819;28;20246;-69
2023/11/01 03:58:11;;;;;;;0.70;0.70;;;-0.50;99.90;;;;;;5112322;28;20203;-69
2023/11/01 04:00:37;;;;;;;0.60;0.60;;;-0.60;99.90;;;;;;5107518;28;20742;-69
2023/11/01 04:03:02;;;;;;;0.70;0.70;;;-0.50;99.90;;;;;;5107346;28;20219;-70
2023/11/01 04:05:28;;;;;;;1.38;1.27;;;-0.50;99.90;;;;;;5112099;28;20286;-70
2023/11/01 04:07:54;;;;;;;1.45;1.35;;;-0.50;99.90;;;;;;5112162;28;20203;-70
2023/11/01 04:10:20;;;;;;;1.60;1.50;;;-0.50;99.90;;;;;;5112086;28;20191;-69
2023/11/01 04:12:45;;;;;;;0.88;0.88;;;-0.50;99.90;;;;;;5111958;28;20812;-69
2023/11/01 04:15:12;;;;;;;0.73;0.73;;;-0.50;99.90;;;;;;5112065;28;20561;-69
2023/11/01 04:17:39;;;;;;;0.70;0.70;;;-0.50;99.90;;;;;;5111808;28;20195;-69
2023/11/01 04:20:08;;;;;;;0.75;0.75;;;-0.50;99.90;;;;;;5111875;28;20654;-69
2023/11/01 04:22:38;;;;;;;0.70;0.70;;;-0.60;99.90;;;;;;5111747;28;20199;-69
2023/11/01 04:25:10;;;;;;;0.90;0.90;;;-0.60;99.90;;;;;;5111558;28;20196;-70
2023/11/01 04:27:39;;;;;;;1.10;1.00;;;-0.60;99.90;;;;;;5106057;28;20566;-70
2023/11/01 04:30:09;;;;;;;0.70;0.70;;;-0.60;99.90;;;;;;5091367;28;20185;-70
2023/11/01 04:32:38;;;;;;;0.70;0.70;;;-0.60;99.90;;;;;;5091003;28;20531;-70
2023/11/01 04:35:09;;;;;;;0.80;0.80;;;-0.60;99.90;;;;;;5089625;28;20407;-70
2023/11/01 04:37:37;;;;;;;0.70;0.70;;;-0.60;99.90;;;;;;5111377;28;20202;-70
2023/11/01 04:40:10;;;;;;;0.90;0.90;;;-0.70;99.90;;;;;;5111327;28;20670;-69
2023/11/01 04:42:39;;;;;;;0.80;0.80;;;-0.70;99.90;;;;;;5111028;28;20666;-69
2023/11/01 04:45:06;;;;;;;0.70;0.70;;;-0.70;99.90;;;;;;5111201;28;20272;-69
2023/11/01 04:47:34;;;;;;;0.68;0.68;;;-0.70;99.90;;;;;;5111217;28;20662;-69
2023/11/01 04:50:00;;;;;;;0.80;0.80;;;-0.80;99.90;;;;;;5111029;28;20674;-69
2023/11/01 04:52:26;;;;;;;0.70;0.70;;;-0.80;99.90;;;;;;5104277;28;20200;-69
2023/11/01 04:54:51;;;;;;;0.70;0.70;;;-0.80;99.90;;;;;;5090796;28;20265;-69
2023/11/01 04:57:17;;;;;;;0.70;0.70;;;-0.80;99.90;;;;;;5090716;28;20330;-69
2023/11/01 04:59:42;;;;;;;0.75;0.75;;;-0.80;99.90;;;;;;5090668;28;20309;-69
2023/11/01 05:02:08;;;;;;;0.73;0.73;;;-0.80;99.90;;;;;;5090759;28;20211;-69
2023/11/01 05:04:35;;;;;;;0.60;0.60;;;-0.80;99.90;;;;;;5086555;28;20192;-69
2023/11/01 05:07:00;;;;;;;0.60;0.60;;;-0.80;99.90;;;;;;5111101;28;20199;-69
2023/11/01 05:09:26;;;;;;;0.60;0.60;;;-0.80;99.90;;;;;;5110874;28;20699;-69
2023/11/01 05:11:51;;;;;;;0.70;0.70;;;-0.80;99.90;;;;;;5099697;28;20637;-69
2023/11/01 05:14:18;;;;;;;0.60;0.60;;;-0.90;99.90;;;;;;5089738;28;20272;-68
2023/11/01 05:16:45;;;;;;;0.70;0.70;;;-0.90;99.90;;;;;;5090462;28;20206;-69
2023/11/01 05:19:10;;;;;;;0.70;0.70;;;-1.00;99.90;;;;;;5090346;28;20192;-69
2023/11/01 05:21:36;;;;;;;0.70;0.70;;;-1.00;99.90;;;;;;5089978;28;20192;-69
2023/11/01 05:24:03;;;;;;;0.70;0.70;;;-1.10;99.90;;;;;;5089895;28;20285;-69
2023/11/01 05:26:29;;;;;;;0.70;0.70;;;-1.10;99.90;;;;;;5090075;28;20257;-69
2023/11/01 05:28:56;;;;;;;0.85;0.85;;;-1.20;99.90;;;;;;5090402;28;20192;-68
2023/11/01 05:31:23;;;;;;;0.70;0.70;;;-1.20;99.90;;;;;;5106891;28;20191;-68
2023/11/01 05:33:50;;;;;;;0.77;0.77;;;-1.30;99.90;;;;;;5110448;28;20658;-68
2023/11/01 05:36:16;;;;;;;0.70;0.70;;;-1.30;99.90;;;;;;5091988;28;20235;-68
2023/11/01 05:38:43;;;;;;;0.85;0.85;;;-1.30;99.90;;;;;;5110113;28;20207;-69
2023/11/01 05:41:09;;;;;;;0.60;0.60;;;-1.40;99.90;;;;;;5110230;28;20283;-70
2023/11/01 05:43:39;;;;;;;0.70;0.70;;;-1.40;99.90;;;;;;5109919;28;20666;-71
2023/11/01 05:46:05;;;;;;;0.90;0.90;;;-1.40;99.90;;;;;;5110063;28;20653;-69
2023/11/01 05:48:32;;;;;;;0.60;0.60;;;-1.40;99.90;;;;;;5110038;28;20179;-70
2023/11/01 05:51:02;;;;;;;0.60;0.60;;;-1.50;99.90;;;;;;5110280;28;20559;-70
2023/11/01 05:53:27;;;;;;;0.57;0.57;;;-1.60;99.90;;;;;;5110223;28;20756;-70
2023/11/01 05:55:53;;;;;;;0.70;0.70;;;-1.60;99.90;;;;;;5109888;28;20310;-70
2023/11/01 05:58:19;;;;;;;0.60;0.60;;;-1.70;99.90;;;;;;5110033;28;20198;-70
2023/11/01 06:00:47;;;;;;;0.70;0.70;;;-1.80;99.90;;;;;;5110044;28;20654;-70
2023/11/01 06:03:13;;;;;;;0.77;0.77;;;-1.80;99.90;;;;;;5109753;28;20691;-70
2023/11/01 06:05:39;;;;;;;0.73;0.73;;;-1.80;99.90;;;;;;5109719;28;20195;-70
2023/11/01 06:08:07;;;;;;;0.80;0.80;;;-1.80;99.90;;;;;;5110040;28;20222;-70
2023/11/01 06:10:33;;;;;;;0.60;0.60;;;-1.80;99.90;;;;;;5109936;28;20183;-71
2023/11/01 06:13:00;;;;;;;1.05;1.02;;;-1.90;99.90;;;;;;5091578;28;20209;-72
2023/11/01 06:15:26;;;;;;;0.70;0.70;;;-1.90;99.90;;;;;;5109734;28;20223;-70
2023/11/01 06:17:52;;;;;;;0.60;0.60;;;-2.00;99.90;;;;;;5109904;28;20239;-70
2023/11/01 06:20:18;;;;;;;0.63;0.63;;;-2.00;99.90;;;;;;5084293;28;20217;-70
2023/11/01 06:22:44;;;;;;;0.68;0.68;;;-2.00;99.90;;;;;;5089113;28;20207;-70
2023/11/01 06:25:10;;;;;;;0.80;0.80;;;-2.10;99.90;;;;;;5089370;28;20278;-70
2023/11/01 06:27:36;;;;;;;0.70;0.70;;;-2.10;99.90;;;;;;5106226;28;20617;-70
2023/11/01 06:30:05;;;;;;;0.60;0.60;;;-2.20;99.90;;;;;;5109810;28;20203;-70
2023/11/01 06:32:32;;;;;;;0.60;0.60;;;-2.10;99.90;;;;;;5109419;28;20283;-70
2023/11/01 06:34:59;;;;;;;0.70;0.70;;;-2.10;99.90;;;;;;5109607;28;20659;-70
2023/11/01 06:37:25;;;;;;;0.70;0.70;;;-2.20;99.90;;;;;;5091142;28;20196;-70
2023/11/01 06:39:51;;;;;;;0.75;0.75;;;-2.20;99.90;;;;;;5109515;28;20270;-70
2023/11/01 06:42:17;;;;;;;0.70;0.70;;;-2.20;99.90;;;;;;5090903;28;20290;-71
2023/11/01 06:44:42;;;;;;;0.80;0.80;;;-2.20;99.90;;;;;;5108791;28;20199;-72
2023/11/01 06:47:08;;;;;;;0.80;0.80;;;-2.20;99.90;;;;;;5109304;28;20195;-70
2023/11/01 06:49:34;;;;;;;0.70;0.70;;;-2.20;99.90;;;;;;5109139;28;20215;-70
2023/11/01 06:52:00;;;;;;;0.70;0.70;;;-2.30;99.90;;;;;;5109329;28;20187;-71
2023/11/01 06:54:25;;;;;;;0.77;0.77;;;-2.30;99.90;;;;;;5107951;28;20588;-71
2023/11/01 06:56:51;;;;;;;0.70;0.70;;;-2.30;99.90;;;;;;5070473;28;20348;-71
2023/11/01 06:59:17;;;;;;;0.80;0.80;;;-2.30;99.90;;;;;;5088810;28;20271;-71
2023/11/01 07:01:43;;;;;;;0.70;0.70;;;-2.30;99.90;;;;;;5088736;28;20239;-71
2023/11/01 07:04:09;;;;;;;0.88;0.88;;;-2.20;99.90;;;;;;5088578;28;20219;-71
2023/11/01 07:06:35;;;;;;;0.70;0.70;;;-2.20;99.90;;;;;;5070123;28;20200;-71
2023/11/01 07:09:01;;;;;;;0.80;0.80;;;-2.20;99.90;;;;;;5070597;28;20192;-71
2023/11/01 07:11:27;;;;;;;0.80;0.80;;;-2.10;99.90;;;;;;5088835;28;20309;-71
2023/11/01 07:13:53;;;;;;;0.80;0.80;;;-2.10;99.90;;;;;;5088778;28;20249;-72
2023/11/01 07:16:19;;;;;;;0.80;0.80;;;-2.10;99.90;;;;;;5088426;28;20253;-71
2023/11/01 07:18:45;;;;;;;0.73;0.73;;;-2.00;99.90;;;;;;5088630;28;20208;-71
2023/11/01 07:21:11;;;;;;;0.80;0.80;;;-2.00;99.90;;;;;;5088559;28;20205;-70
2023/11/01 07:23:37;;;;;;;0.60;0.60;;;-2.00;99.90;;;;;;5073603;28;20586;-71
2023/11/01 07:26:03;;;;;;;0.80;0.80;;;-1.90;99.90;;;;;;5068448;28;20193;-71
2023/11/01 07:28:30;;;;;;;0.70;0.70;;;-1.90;99.90;;;;;;5068334;28;20205;-71
2023/11/01 07:30:56;;;;;;;0.73;0.73;;;-1.90;99.90;;;;;;5068301;28;20191;-71
2023/11/01 07:33:22;;;;;;;0.75;0.75;;;-1.90;99.90;;;;;;5068421;28;20192;-72
2023/11/01 07:35:48;;;;;;;0.82;0.82;;;-1.80;99.90;;;;;;5079317;28;20200;-72
2023/11/01 07:38:14;;;;;;;0.70;0.70;;;-1.70;99.90;;;;;;5092202;28;20295;-71
2023/11/01 07:40:40;;;;;;;0.77;0.77;;;-1.70;99.90;;;;;;5092049;28;20228;-71
2023/11/01 07:43:05;;;;;;;0.70;0.70;;;-1.70;99.90;;;;;;5092284;28;20208;-70
2023/11/01 07:45:31;;;;;;;0.68;0.68;;;-1.70;99.90;;;;;;5091916;28;20267;-71
2023/11/01 07:47:57;;;;;;;0.80;0.80;;;-1.70;99.90;;;;;;5092045;28;20657;-70
2023/11/01 07:50:24;;;;;;;0.70;0.70;;;-1.60;99.90;;;;;;5091962;28;20228;-70
2023/11/01 07:52:50;;;;;;;0.60;0.60;;;-1.50;99.90;;;;;;5073979;28;20579;-70
2023/11/01 07:55:16;;;;;;;0.60;0.60;;;-1.40;99.90;;;;;;5100356;28;20227;-70
2023/11/01 07:57:41;;;;;;;0.65;0.65;;;-1.30;99.90;;;;;;5093564;28;20252;-70
2023/11/01 08:00:08;;;;;;;0.60;0.60;;;-1.20;99.90;;;;;;5101442;27;20514;-70
2023/11/01 08:02:35;;;;;;;0.70;0.70;;;-1.20;99.90;;;;;;5132700;27;20231;-71
2023/11/01 08:05:01;;;;;;;0.80;0.80;;;-1.10;99.90;;;;;;5095162;27;20192;-71
2023/11/01 08:07:26;;;;;;;0.73;0.73;;;-0.90;99.90;;;;;;5091707;28;20198;-70
2023/11/01 08:09:52;;;;;;;0.63;0.63;;;-0.90;99.90;;;;;;5091728;28;20571;-70
2023/11/01 08:12:19;;;;;;;0.70;0.70;;;-0.80;99.90;;;;;;5091682;28;20192;-70
2023/11/01 08:14:45;;;;;;;0.60;0.60;;;-0.70;99.90;;;;;;5091767;28;20192;-71
2023/11/01 08:17:10;;;;;;;0.70;0.70;;;-0.60;99.90;;;;;;5091873;28;20211;-70
2023/11/01 08:19:38;;;;;;;0.60;0.60;;;-0.50;99.90;;;;;;5104384;28;20187;-70
2023/11/01 08:22:04;;;;;;;0.60;0.60;;;-0.40;99.90;;;;;;5111815;28;20202;-71
2023/11/01 08:24:30;;;;;;;0.70;0.70;;;-0.30;99.90;;;;;;5111711;28;20211;-70
2023/11/01 08:26:55;;;;;;;0.70;0.70;;;-0.30;99.90;;;;;;5111551;28;20195;-70
2023/11/01 08:29:21;;;;;;;0.68;0.68;;;-0.10;99.90;;;;;;5111512;28;20191;-70
2023/11/01 08:31:47;;;;;;;0.77;0.77;;;-0.10;99.90;;;;;;5111670;28;20270;-70
2023/11/01 08:34:13;;;;;;;0.60;0.60;;;0.00;99.90;;;;;;5111535;28;20208;-71
2023/11/01 08:36:39;;;;;;;0.70;0.70;;;0.10;99.90;;;;;;5092518;28;20298;-71
2023/11/01 08:39:05;;;;;;;0.65;0.65;;;0.20;99.90;;;;;;5091028;28;20214;-71
2023/11/01 08:41:30;;;;;;;0.63;0.63;;;0.20;99.90;;;;;;5090801;28;20227;-71
2023/11/01 08:43:57;;;;;;;0.65;0.65;;;0.40;99.90;;;;;;5072664;28;20212;-70
2023/11/01 08:46:22;;;;;;;0.75;0.75;;;0.50;99.90;;;;;;5091056;28;20692;-70
2023/11/01 08:48:49;;;;;;;0.68;0.68;;;0.60;99.90;;;;;;5071637;28;20189;-70
2023/11/01 08:51:15;;;;;;;0.60;0.60;;;0.70;99.90;;;;;;5090908;28;20270;-70
2023/11/01 08:53:41;;;;;;;0.50;0.50;;;0.80;99.90;;;;;;5090560;28;20196;-71
2023/11/01 08:56:08;;;;;;;0.60;0.60;;;0.90;99.90;;;;;;5075237;28;20227;-71
2023/11/01 08:58:34;;;;;;;0.70;0.70;;;1.10;99.90;;;;;;5070557;28;20217;-71
2023/11/01 09:01:00;;;;;;;0.60;0.60;;;1.30;99.90;;;;;;5070527;28;20783;-70
2023/11/01 09:03:26;;;;;;;0.60;0.60;;;1.50;99.90;;;;;;5075096;28;20212;-71
2023/11/01 09:05:54;;;;;;;0.57;0.57;;;1.50;99.90;;;;;;5090451;28;20686;-71
2023/11/01 09:08:20;;;;;;;0.60;0.60;;;1.60;99.90;;;;;;5089953;28;20553;-70
2023/11/01 09:10:45;;;;;;;0.60;0.60;;;1.70;99.90;;;;;;5071906;28;20211;-71
2023/11/01 09:13:11;;;;;;;0.63;0.63;;;1.60;99.90;;;;;;5071994;28;20517;-70
2023/11/01 09:15:37;;;;;;;0.60;0.60;;;1.70;99.90;;;;;;5071584;28;20196;-71
2023/11/01 09:18:06;;;;;;;0.70;0.70;;;2.00;99.90;;;;;;5071833;28;20978;-70
2023/11/01 09:20:32;;;;;;;0.65;0.65;;;2.10;99.90;;;;;;5090069;28;20697;-73
2023/11/01 09:22:58;;;;;;;0.60;0.60;;;2.30;99.90;;;;;;5090248;28;20211;-73
2023/11/01 09:25:25;;;;;;;0.57;0.57;;;2.40;99.90;;;;;;5089902;28;20192;-73
2023/11/01 09:27:51;;;;;;;0.50;0.50;;;2.40;99.90;;;;;;5083776;28;20207;-72
2023/11/01 09:30:17;;;;;;;0.60;0.60;;;2.70;99.90;;;;;;5078380;28;20246;-74
2023/11/01 09:32:42;;;;;;;0.70;0.70;;;2.70;99.90;;;;;;5089727;28;20208;-72
2023/11/01 09:35:08;;;;;;;0.60;0.60;;;2.50;99.90;;;;;;5070706;28;20232;-72
2023/11/01 09:37:35;;;;;;;0.70;0.70;;;2.40;99.90;;;;;;5069699;28;20608;-71
2023/11/01 09:40:01;;;;;;;0.70;0.70;;;2.50;99.90;;;;;;5069501;28;20195;-73
2023/11/01 09:42:28;;;;;;;0.50;0.50;;;2.80;99.90;;;;;;5051440;28;20197;-72
2023/11/01 09:44:58;;;;;;;0.60;0.60;;;2.90;99.90;;;;;;5069529;28;20271;-72
2023/11/01 09:47:27;;;;;;;0.70;0.70;;;2.80;99.90;;;;;;5051430;28;20287;-73
2023/11/01 09:49:56;;;;;;;0.60;0.60;;;2.80;99.90;;;;;;5069585;28;20268;-72
2023/11/01 09:52:26;;;;;;;0.60;0.60;;;2.70;99.90;;;;;;5069377;28;20192;-72
2023/11/01 09:54:52;;;;;;;0.60;0.60;;;3.00;99.90;;;;;;5052434;28;20235;-72
2023/11/01 09:57:24;;;;;;;0.60;0.60;;;3.00;99.90;;;;;;5069288;28;20193;-72
2023/11/01 09:59:50;;;;;;;0.50;0.50;;;3.10;99.90;;;;;;5069047;28;20632;-73
2023/11/01 10:02:17;;;;;;;0.60;0.60;;;3.10;99.90;;;;;;5069289;28;20631;-72
2023/11/01 10:04:44;;;;;;;0.60;0.60;;;3.40;99.90;;;;;;5081136;28;20219;-73
2023/11/01 10:07:10;;;;;;;0.70;0.70;;;3.50;99.90;;;;;;5069453;28;20561;-73
2023/11/01 10:09:38;;;;;;;0.70;0.70;;;3.10;99.90;;;;;;5069200;28;20189;-72
2023/11/01 10:12:07;;;;;;;0.70;0.70;;;2.80;99.90;;;;;;5081094;28;20200;-72
2023/11/01 10:14:35;;;;;;;0.60;0.60;;;2.80;99.90;;;;;;5089354;28;20410;-74
2023/11/01 10:17:02;;;;;;;0.57;0.57;;;2.60;99.90;;;;;;5089131;28;20192;-73
2023/11/01 10:19:28;;;;;;;0.63;0.63;;;2.40;99.90;;;;;;5089187;28;20223;-73
2023/11/01 10:21:55;;;;;;;0.60;0.60;;;2.20;99.90;;;;;;5089250;28;20304;-73
2023/11/01 10:24:28;;;;;;;0.47;0.47;;;2.30;99.90;;;;;;5088754;28;20220;-72
2023/11/01 10:26:55;;;;;;;0.68;0.68;;;2.40;99.90;;;;;;5089080;28;20204;-75
2023/11/01 10:29:21;;;;;;;0.63;0.63;;;2.80;99.90;;;;;;5087037;28;20643;-68
2023/11/01 10:31:58;;;;;;;0.70;0.70;;;3.50;99.90;;;;;;5068815;28;20193;-69
2023/11/01 10:34:31;;;;;;;0.60;0.60;;;3.90;99.90;;;;;;5068717;28;20275;-69
2023/11/01 10:36:58;;;;;;;0.63;0.63;;;4.20;99.90;;;;;;5068939;28;20307;-69
2023/11/01 10:39:25;;;;;;;0.60;0.60;;;4.60;99.90;;;;;;5068941;28;20206;-70
2023/11/01 10:41:55;;;;;;;0.68;0.68;;;4.90;99.90;;;;;;5069012;28;20189;-68
2023/11/01 10:44:22;;;;;;;0.60;0.60;;;4.80;99.90;;;;;;5068575;28;20315;-68
2023/11/01 10:46:49;;;;;;;0.52;0.52;;;4.60;99.90;;;;;;5068673;28;20271;-69
2023/11/01 10:49:15;;;;;;;0.77;0.77;;;4.10;99.90;;;;;;5068772;28;20276;-71
2023/11/01 10:51:43;;;;;;;1.55;1.45;;;3.90;99.90;;;;;;5068556;28;20199;-69
2023/11/01 10:54:09;;;;;;;0.63;0.63;;;4.00;99.90;;;;;;5068818;28;20192;-69
2023/11/01 10:56:36;;;;;;;0.70;0.70;;;4.10;99.90;;;;;;5067028;28;20323;-70
2023/11/01 10:59:10;;;;;;;0.50;0.50;;;3.90;99.90;;;;;;5068750;28;20274;-70
2023/11/01 11:01:44;;;;;;;0.60;0.60;;;3.50;99.90;;;;;;5068462;28;20292;-68
2023/11/01 11:04:12;;;;;;;0.52;0.52;;;3.60;99.90;;;;;;5079670;28;20207;-68
2023/11/01 11:06:57;;;;;;;0.52;0.52;;;3.90;99.90;;;;;;5087402;28;20757;-68
2023/11/01 11:09:24;;;;;;;0.70;0.70;;;3.70;99.90;;;;;;5068551;28;20230;-69
2023/11/01 11:12:15;;;;;;;0.70;0.70;;;3.60;99.90;;;;;;5070132;28;20195;-70
2023/11/01 11:14:48;;;;;;;0.60;0.60;;;3.70;99.90;;;;;;5072246;28;20193;-68
2023/11/01 11:17:15;;;;;;;0.63;0.63;;;3.80;99.90;;;;;;5072505;28;20991;-67
2023/11/01 11:20:05;;;;;;;0.70;0.70;;;4.00;99.90;;;;;;5072187;28;20219;-68
2023/11/01 11:23:00;;;;;;;0.77;0.77;;;3.70;99.90;;;;;;5078439;28;20740;-69
2023/11/01 11:25:38;;;;;;;0.82;0.75;;;3.80;99.90;;;;;;5092024;28;20667;-69
2023/11/01 11:28:20;;;;;;;0.73;0.73;;;3.80;99.90;;;;;;5072108;28;20203;-69
2023/11/01 11:31:05;;;;;;;0.60;0.60;;;3.60;99.90;;;;;;5072139;28;20189;-68
2023/11/01 11:33:32;;;;;;;1.42;1.33;;;3.30;99.90;;;;;;5071808;28;20197;-69
2023/11/01 11:36:12;;;;;;;0.98;0.98;;;3.40;99.90;;;;;;5071778;28;20197;-69
2023/11/01 11:38:38;;;;;;;0.77;0.77;;;3.40;99.90;;;;;;5071890;28;20271;-70
2023/11/01 11:41:14;;;;;;;0.60;0.60;;;3.40;99.90;;;;;;5070603;28;20231;-71
2023/11/01 11:44:05;;;;;;;0.60;0.60;;;3.30;99.90;;;;;;5071691;28;20281;-71
2023/11/01 11:46:38;;;;;;;0.63;0.63;;;2.80;99.90;;;;;;5071617;28;20185;-70
2023/11/01 11:49:08;;;;;;;0.80;0.80;;;2.50;99.90;;;;;;5071769;28;20197;-71
2023/11/01 11:51:35;;;;;;;0.70;0.70;;;2.40;99.90;;;;;;5071640;28;20734;-71
2023/11/01 11:54:16;;;;;;;0.70;0.70;;;2.30;99.90;;;;;;5071636;28;20200;-71
2023/11/01 11:56:42;;;;;;;0.60;0.60;;;2.10;99.90;;;;;;5091315;28;20590;-70
2023/11/01 11:59:09;;;;;;;0.60;0.60;;;2.10;99.90;;;;;;5110124;28;20204;-71
2023/11/01 12:01:35;;;;;;;0.50;0.50;;;2.00;99.90;;;;;;5111924;28;20195;-71
2023/11/01 12:04:04;;;;;;;0.60;0.60;;;1.90;99.90;;;;;;5085655;28;20220;-71
2023/11/01 12:06:47;;;;;;;0.65;0.65;;;1.90;99.90;;;;;;5091498;28;20200;-70
2023/11/01 12:09:23;;;;;;;0.55;0.55;;;2.00;99.90;;;;;;5091625;28;20188;-71
2023/11/01 12:11:50;;;;;;;0.60;0.60;;;1.90;99.90;;;;;;5073287;28;20200;-71
2023/11/01 12:14:27;;;;;;;0.63;0.63;;;1.80;99.90;;;;;;5091911;28;20207;-70
2023/11/01 12:16:56;;;;;;;0.60;0.60;;;1.60;99.90;;;;;;5091646;28;20564;-70
2023/11/01 12:19:25;;;;;;;0.60;0.60;;;1.70;99.90;;;;;;5102869;28;20203;-68
2023/11/01 12:21:56;;;;;;;0.68;0.68;;;1.80;99.90;;;;;;5109574;28;20196;-68
2023/11/01 12:24:26;;;;;;;0.50;0.50;;;1.90;99.90;;;;;;5091176;28;20244;-67
2023/11/01 12:26:58;;;;;;;0.50;0.50;;;2.00;99.90;;;;;;5091223;28;20188;-68
2023/11/01 12:29:39;;;;;;;0.50;0.50;;;2.10;99.90;;;;;;5091185;28;20192;-69
2023/11/01 12:32:08;;;;;;;0.68;0.68;;;2.10;99.90;;;;;;5091294;28;20187;-67
2023/11/01 12:34:36;;;;;;;0.60;0.60;;;2.10;99.90;;;;;;5091051;28;20720;-68
2023/11/01 12:37:10;;;;;;;0.68;0.68;;;2.10;99.90;;;;;;5091161;28;20558;-68
2023/11/01 12:39:38;;;;;;;0.60;0.60;;;2.10;99.90;;;;;;5091016;28;20677;-68
2023/11/01 12:42:24;;;;;;;0.60;0.60;;;2.10;99.90;;;;;;5091030;28;20227;-68
2023/11/01 12:44:51;;;;;;;0.68;0.68;;;2.00;99.90;;;;;;5090820;28;20200;-69
2023/11/01 12:47:17;;;;;;;0.60;0.60;;;2.10;99.90;;;;;;5090998;28;20188;-67
2023/11/01 12:49:44;;;;;;;0.70;0.70;;;2.20;99.90;;;;;;5091007;28;20196;-70
2023/11/01 12:52:09;;;;;;;0.60;0.60;;;2.30;99.90;;;;;;5091122;28;20241;-70